OBBI/BAH METAR and TAF weather

Enter ICAO airport designator
Station Type Date Time Source
OBBI METAR 2021/02/27 02:30 UTC NOAA

OBBI 270230Z 29009KT CAVOK 17/12 Q1017 NOSIG


Station Type Date Time Source
OBBI Decoded METAR 2021/02/27 02:30 UTC NOAA

Bahrain International Airport , Bahrain (OBBI) 26-16N 050-39E 2M
Feb 26, 2021 - 09:30 PM EST / 2021.02.27 0230 UTC
Wind: from the WNW (290 degrees) at 10 MPH (9 KT):0
Visibility: greater than 7 mile(s):0
Temperature: 62 F (17 C)
Dew Point: 53 F (12 C)
Relative Humidity: 72%
Pressure (altimeter): 30.03 in. Hg (1017 hPa)
ob: OBBI 270230Z 29009KT CAVOK 17/12 Q1017 NOSIG
cycle: 2

Station Type Date Time Source
OBBI TAF 2021/02/26 18:31 UTC NOAA

TAF OBBI 261700Z 2618/2800 33015KT CAVOK

Example: see airport list